sensor_id;sensor_type;location;lat;lon;timestamp;pressure;altitude;pressure_sealevel;temperature;humidity
75740;BME280;64357;51.344;6.550;2023-11-19T00:00:22;100484.66;;;11.85;100.00
75740;BME280;64357;51.344;6.550;2023-11-19T00:02:48;100501.91;;;11.88;100.00
75740;BME280;64357;51.344;6.550;2023-11-19T00:05:14;100495.81;;;11.96;100.00
75740;BME280;64357;51.344;6.550;2023-11-19T00:07:40;100485.84;;;11.99;100.00
75740;BME280;64357;51.344;6.550;2023-11-19T00:10:12;100483.00;;;11.96;100.00
75740;BME280;64357;51.344;6.550;2023-11-19T00:12:43;100494.72;;;12.03;100.00
75740;BME280;64357;51.344;6.550;2023-11-19T00:15:12;100481.53;;;12.08;100.00
75740;BME280;64357;51.344;6.550;2023-11-19T00:17:45;100487.75;;;12.01;100.00
75740;BME280;64357;51.344;6.550;2023-11-19T00:20:18;100477.81;;;12.05;100.00
75740;BME280;64357;51.344;6.550;2023-11-19T00:22:44;100478.63;;;12.14;100.00
75740;BME280;64357;51.344;6.550;2023-11-19T00:25:13;100474.13;;;12.11;100.00
75740;BME280;64357;51.344;6.550;2023-11-19T00:27:40;100476.44;;;12.18;100.00
75740;BME280;64357;51.344;6.550;2023-11-19T00:30:09;100468.91;;;12.20;100.00
75740;BME280;64357;51.344;6.550;2023-11-19T00:32:35;100476.97;;;12.14;100.00
75740;BME280;64357;51.344;6.550;2023-11-19T00:35:01;100468.66;;;12.27;100.00
75740;BME280;64357;51.344;6.550;2023-11-19T00:37:30;100465.34;;;12.28;100.00
75740;BME280;64357;51.344;6.550;2023-11-19T00:39:55;100466.88;;;12.26;100.00
75740;BME280;64357;51.344;6.550;2023-11-19T00:42:25;100465.47;;;12.30;100.00
75740;BME280;64357;51.344;6.550;2023-11-19T00:44:51;100471.09;;;12.25;100.00
75740;BME280;64357;51.344;6.550;2023-11-19T00:47:18;100458.31;;;12.25;100.00
75740;BME280;64357;51.344;6.550;2023-11-19T00:49:47;100454.06;;;12.26;100.00
75740;BME280;64357;51.344;6.550;2023-11-19T00:52:14;100451.13;;;12.21;100.00
75740;BME280;64357;51.344;6.550;2023-11-19T00:54:40;100443.38;;;12.11;100.00
75740;BME280;64357;51.344;6.550;2023-11-19T00:57:05;100446.59;;;12.09;100.00
75740;BME280;64357;51.344;6.550;2023-11-19T00:59:32;100445.50;;;12.25;100.00
75740;BME280;64357;51.344;6.550;2023-11-19T01:01:58;100439.31;;;12.23;100.00
75740;BME280;64357;51.344;6.550;2023-11-19T01:04:28;100440.22;;;12.24;100.00
75740;BME280;64357;51.344;6.550;2023-11-19T01:06:56;100436.69;;;12.32;100.00
75740;BME280;64357;51.344;6.550;2023-11-19T01:09:23;100439.31;;;12.23;100.00
75740;BME280;64357;51.344;6.550;2023-11-19T01:11:51;100421.91;;;12.19;100.00
75740;BME280;64357;51.344;6.550;2023-11-19T01:14:19;100433.47;;;12.35;100.00
75740;BME280;64357;51.344;6.550;2023-11-19T01:16:48;100433.22;;;12.32;100.00
75740;BME280;64357;51.344;6.550;2023-11-19T01:19:13;100428.84;;;12.31;100.00
75740;BME280;64357;51.344;6.550;2023-11-19T01:21:39;100437.03;;;12.37;100.00
75740;BME280;64357;51.344;6.550;2023-11-19T01:24:07;100429.38;;;12.26;100.00
75740;BME280;64357;51.344;6.550;2023-11-19T01:26:34;100442.41;;;12.30;100.00
75740;BME280;64357;51.344;6.550;2023-11-19T01:29:02;100440.38;;;12.36;100.00
75740;BME280;64357;51.344;6.550;2023-11-19T01:31:28;100439.59;;;12.37;100.00
75740;BME280;64357;51.344;6.550;2023-11-19T01:33:54;100451.66;;;12.38;100.00
75740;BME280;64357;51.344;6.550;2023-11-19T01:36:19;100453.72;;;12.32;100.00
75740;BME280;64357;51.344;6.550;2023-11-19T01:38:45;100447.28;;;12.37;100.00
75740;BME280;64357;51.344;6.550;2023-11-19T01:41:13;100446.75;;;12.31;100.00
75740;BME280;64357;51.344;6.550;2023-11-19T01:43:39;100445.09;;;12.31;100.00
75740;BME280;64357;51.344;6.550;2023-11-19T01:46:08;100438.72;;;12.26;100.00
75740;BME280;64357;51.344;6.550;2023-11-19T01:48:39;100438.84;;;12.27;100.00
75740;BME280;64357;51.344;6.550;2023-11-19T01:51:06;100459.19;;;12.36;100.00
75740;BME280;64357;51.344;6.550;2023-11-19T01:53:34;100453.34;;;12.37;100.00
75740;BME280;64357;51.344;6.550;2023-11-19T01:56:04;100443.34;;;12.40;100.00
75740;BME280;64357;51.344;6.550;2023-11-19T01:58:30;100431.03;;;12.36;100.00
75740;BME280;64357;51.344;6.550;2023-11-19T02:00:56;100425.94;;;12.46;100.00
75740;BME280;64357;51.344;6.550;2023-11-19T02:03:25;100431.94;;;12.47;100.00
75740;BME280;64357;51.344;6.550;2023-11-19T02:05:51;100425.41;;;12.40;100.00
75740;BME280;64357;51.344;6.550;2023-11-19T02:08:20;100409.25;;;12.41;100.00
75740;BME280;64357;51.344;6.550;2023-11-19T02:10:46;100409.91;;;12.39;100.00
75740;BME280;64357;51.344;6.550;2023-11-19T02:13:11;100415.19;;;12.50;100.00
75740;BME280;64357;51.344;6.550;2023-11-19T02:15:40;100394.94;;;12.43;100.00
75740;BME280;64357;51.344;6.550;2023-11-19T02:18:26;100379.19;;;12.39;100.00
75740;BME280;64357;51.344;6.550;2023-11-19T02:20:54;100379.81;;;12.46;100.00
75740;BME280;64357;51.344;6.550;2023-11-19T02:23:20;100388.91;;;12.43;100.00
75740;BME280;64357;51.344;6.550;2023-11-19T02:25:52;100392.63;;;12.46;100.00
75740;BME280;64357;51.344;6.550;2023-11-19T02:28:19;100396.84;;;12.46;100.00
75740;BME280;64357;51.344;6.550;2023-11-19T02:30:44;100398.91;;;12.50;100.00
75740;BME280;64357;51.344;6.550;2023-11-19T02:33:10;100397.50;;;12.53;100.00
75740;BME280;64357;51.344;6.550;2023-11-19T02:35:35;100401.84;;;12.44;100.00
75740;BME280;64357;51.344;6.550;2023-11-19T02:38:01;100398.66;;;12.47;100.00
75740;BME280;64357;51.344;6.550;2023-11-19T02:40:26;100400.22;;;12.55;100.00
75740;BME280;64357;51.344;6.550;2023-11-19T02:42:53;100392.00;;;12.59;100.00
75740;BME280;64357;51.344;6.550;2023-11-19T02:45:20;100393.41;;;12.56;100.00
75740;BME280;64357;51.344;6.550;2023-11-19T02:47:47;100391.75;;;12.56;100.00
75740;BME280;64357;51.344;6.550;2023-11-19T02:50:15;100389.81;;;12.53;100.00
75740;BME280;64357;51.344;6.550;2023-11-19T02:52:44;100378.16;;;12.57;100.00
75740;BME280;64357;51.344;6.550;2023-11-19T02:55:12;100368.41;;;12.53;100.00
75740;BME280;64357;51.344;6.550;2023-11-19T02:57:41;100381.34;;;12.54;100.00
75740;BME280;64357;51.344;6.550;2023-11-19T03:00:21;100375.31;;;12.54;100.00
75740;BME280;64357;51.344;6.550;2023-11-19T03:02:57;100358.81;;;12.50;100.00
75740;BME280;64357;51.344;6.550;2023-11-19T03:05:34;100352.81;;;12.50;100.00
75740;BME280;64357;51.344;6.550;2023-11-19T03:08:02;100366.50;;;12.50;100.00
75740;BME280;64357;51.344;6.550;2023-11-19T03:10:28;100349.97;;;12.57;100.00
75740;BME280;64357;51.344;6.550;2023-11-19T03:12:56;100358.31;;;12.44;100.00
75740;BME280;64357;51.344;6.550;2023-11-19T03:15:22;100363.56;;;12.46;100.00
75740;BME280;64357;51.344;6.550;2023-11-19T03:17:47;100356.63;;;12.45;100.00
75740;BME280;64357;51.344;6.550;2023-11-19T03:20:13;100376.34;;;12.46;100.00
75740;BME280;64357;51.344;6.550;2023-11-19T03:22:44;100383.66;;;12.51;100.00
75740;BME280;64357;51.344;6.550;2023-11-19T03:25:12;100399.16;;;12.53;100.00
75740;BME280;64357;51.344;6.550;2023-11-19T03:27:38;100380.09;;;12.49;100.00
75740;BME280;64357;51.344;6.550;2023-11-19T03:30:08;100371.50;;;12.49;100.00
75740;BME280;64357;51.344;6.550;2023-11-19T03:32:35;100372.78;;;12.44;100.00
75740;BME280;64357;51.344;6.550;2023-11-19T03:35:01;100375.47;;;12.45;100.00
75740;BME280;64357;51.344;6.550;2023-11-19T03:37:26;100373.28;;;12.40;100.00
75740;BME280;64357;51.344;6.550;2023-11-19T03:39:54;100374.44;;;12.43;100.00
75740;BME280;64357;51.344;6.550;2023-11-19T03:42:22;100377.75;;;12.42;100.00
75740;BME280;64357;51.344;6.550;2023-11-19T03:44:48;100393.91;;;12.41;100.00
75740;BME280;64357;51.344;6.550;2023-11-19T03:47:16;100385.81;;;12.37;100.00
75740;BME280;64357;51.344;6.550;2023-11-19T03:49:41;100383.50;;;12.30;100.00
75740;BME280;64357;51.344;6.550;2023-11-19T03:52:06;100397.22;;;12.30;100.00
75740;BME280;64357;51.344;6.550;2023-11-19T03:54:34;100399.00;;;12.31;100.00
75740;BME280;64357;51.344;6.550;2023-11-19T03:57:02;100393.88;;;12.31;100.00
75740;BME280;64357;51.344;6.550;2023-11-19T03:59:29;100396.06;;;12.37;100.00
75740;BME280;64357;51.344;6.550;2023-11-19T04:01:54;100402.22;;;12.28;100.00
75740;BME280;64357;51.344;6.550;2023-11-19T04:04:21;100392.63;;;12.26;100.00
75740;BME280;64357;51.344;6.550;2023-11-19T04:06:46;100388.88;;;12.22;100.00
75740;BME280;64357;51.344;6.550;2023-11-19T04:09:12;100383.63;;;12.21;100.00
75740;BME280;64357;51.344;6.550;2023-11-19T04:11:37;100368.66;;;12.15;100.00
75740;BME280;64357;51.344;6.550;2023-11-19T04:14:04;100379.00;;;12.17;100.00
75740;BME280;64357;51.344;6.550;2023-11-19T04:16:32;100370.31;;;12.15;100.00
75740;BME280;64357;51.344;6.550;2023-11-19T04:18:57;100384.13;;;12.17;100.00
75740;BME280;64357;51.344;6.550;2023-11-19T04:21:22;100386.16;;;12.11;100.00
75740;BME280;64357;51.344;6.550;2023-11-19T04:23:49;100381.00;;;12.00;100.00
75740;BME280;64357;51.344;6.550;2023-11-19T04:26:16;100397.56;;;12.04;100.00
75740;BME280;64357;51.344;6.550;2023-11-19T04:28:41;100384.47;;;12.01;100.00
75740;BME280;64357;51.344;6.550;2023-11-19T04:31:07;100384.88;;;12.06;100.00
75740;BME280;64357;51.344;6.550;2023-11-19T04:33:34;100388.84;;;12.12;100.00
75740;BME280;64357;51.344;6.550;2023-11-19T04:35:59;100387.47;;;12.16;100.00
75740;BME280;64357;51.344;6.550;2023-11-19T04:38:25;100366.69;;;12.13;100.00
75740;BME280;64357;51.344;6.550;2023-11-19T04:40:52;100381.31;;;12.14;100.00
75740;BME280;64357;51.344;6.550;2023-11-19T04:43:17;100380.41;;;12.13;100.00
75740;BME280;64357;51.344;6.550;2023-11-19T04:45:42;100372.97;;;12.06;100.00
75740;BME280;64357;51.344;6.550;2023-11-19T04:48:08;100386.81;;;12.08;100.00
75740;BME280;64357;51.344;6.550;2023-11-19T04:50:39;100399.25;;;12.14;100.00
75740;BME280;64357;51.344;6.550;2023-11-19T04:53:04;100400.75;;;12.12;100.00
75740;BME280;64357;51.344;6.550;2023-11-19T04:55:29;100404.38;;;12.14;100.00
75740;BME280;64357;51.344;6.550;2023-11-19T04:57:55;100394.63;;;12.10;100.00
75740;BME280;64357;51.344;6.550;2023-11-19T05:00:22;100401.53;;;12.11;100.00
75740;BME280;64357;51.344;6.550;2023-11-19T05:02:48;100388.59;;;12.19;100.00
75740;BME280;64357;51.344;6.550;2023-11-19T05:05:15;100374.78;;;12.17;100.00
75740;BME280;64357;51.344;6.550;2023-11-19T05:07:43;100395.38;;;12.19;100.00
75740;BME280;64357;51.344;6.550;2023-11-19T05:10:09;100391.16;;;12.19;100.00
75740;BME280;64357;51.344;6.550;2023-11-19T05:12:34;100382.44;;;12.07;100.00
75740;BME280;64357;51.344;6.550;2023-11-19T05:15:00;100393.72;;;12.19;100.00
75740;BME280;64357;51.344;6.550;2023-11-19T05:17:27;100392.72;;;12.17;100.00
75740;BME280;64357;51.344;6.550;2023-11-19T05:19:53;100395.53;;;12.20;100.00
75740;BME280;64357;51.344;6.550;2023-11-19T05:22:18;100392.72;;;12.17;100.00
75740;BME280;64357;51.344;6.550;2023-11-19T05:24:45;100409.75;;;12.17;100.00
75740;BME280;64357;51.344;6.550;2023-11-19T05:27:13;100417.06;;;12.22;100.00
75740;BME280;64357;51.344;6.550;2023-11-19T05:29:39;100412.81;;;12.23;100.00
75740;BME280;64357;51.344;6.550;2023-11-19T05:32:06;100414.13;;;12.28;100.00
75740;BME280;64357;51.344;6.550;2023-11-19T05:34:32;100408.34;;;12.31;100.00
75740;BME280;64357;51.344;6.550;2023-11-19T05:37:00;100408.63;;;12.34;100.00
75740;BME280;64357;51.344;6.550;2023-11-19T05:39:28;100407.97;;;12.26;100.00
75740;BME280;64357;51.344;6.550;2023-11-19T05:41:53;100399.94;;;12.32;100.00
75740;BME280;64357;51.344;6.550;2023-11-19T05:44:18;100412.56;;;12.30;100.00
75740;BME280;64357;51.344;6.550;2023-11-19T05:46:44;100405.53;;;12.27;100.00
75740;BME280;64357;51.344;6.550;2023-11-19T05:49:13;100407.69;;;12.23;100.00
75740;BME280;64357;51.344;6.550;2023-11-19T05:51:39;100411.94;;;12.22;100.00
75740;BME280;64357;51.344;6.550;2023-11-19T05:54:06;100423.19;;;12.24;100.00
75740;BME280;64357;51.344;6.550;2023-11-19T05:56:32;100416.66;;;12.18;100.00
75740;BME280;64357;51.344;6.550;2023-11-19T05:58:58;100437.03;;;12.26;100.00
75740;BME280;64357;51.344;6.550;2023-11-19T06:01:26;100425.63;;;12.23;100.00
75740;BME280;64357;51.344;6.550;2023-11-19T06:03:51;100427.53;;;12.15;100.00
75740;BME280;64357;51.344;6.550;2023-11-19T06:06:17;100423.19;;;12.14;100.00
75740;BME280;64357;51.344;6.550;2023-11-19T06:08:42;100420.09;;;12.08;100.00
75740;BME280;64357;51.344;6.550;2023-11-19T06:11:10;100416.38;;;12.05;100.00
75740;BME280;64357;51.344;6.550;2023-11-19T06:13:42;100429.03;;;12.03;100.00
75740;BME280;64357;51.344;6.550;2023-11-19T06:16:08;100419.16;;;11.97;100.00
75740;BME280;64357;51.344;6.550;2023-11-19T06:18:33;100430.00;;;11.95;100.00
75740;BME280;64357;51.344;6.550;2023-11-19T06:21:01;100437.31;;;11.90;100.00
75740;BME280;64357;51.344;6.550;2023-11-19T06:23:26;100432.56;;;11.85;100.00
75740;BME280;64357;51.344;6.550;2023-11-19T06:25:51;100422.03;;;11.82;100.00
75740;BME280;64357;51.344;6.550;2023-11-19T06:28:19;100432.94;;;11.89;100.00
75740;BME280;64357;51.344;6.550;2023-11-19T06:30:48;100440.50;;;11.88;100.00
75740;BME280;64357;51.344;6.550;2023-11-19T06:33:13;100433.28;;;11.84;100.00
75740;BME280;64357;51.344;6.550;2023-11-19T06:35:41;100430.47;;;11.81;100.00
75740;BME280;64357;51.344;6.550;2023-11-19T06:38:08;100433.00;;;11.81;100.00
75740;BME280;64357;51.344;6.550;2023-11-19T06:40:34;100432.59;;;11.76;100.00
75740;BME280;64357;51.344;6.550;2023-11-19T06:43:03;100438.91;;;11.80;100.00
75740;BME280;64357;51.344;6.550;2023-11-19T06:45:34;100437.69;;;11.85;100.00
75740;BME280;64357;51.344;6.550;2023-11-19T06:48:02;100450.50;;;11.76;100.00
75740;BME280;64357;51.344;6.550;2023-11-19T06:50:31;100438.56;;;11.66;100.00
75740;BME280;64357;51.344;6.550;2023-11-19T06:52:57;100443.56;;;11.65;100.00
75740;BME280;64357;51.344;6.550;2023-11-19T06:55:22;100450.75;;;11.69;100.00
75740;BME280;64357;51.344;6.550;2023-11-19T06:57:48;100435.25;;;11.67;100.00
75740;BME280;64357;51.344;6.550;2023-11-19T07:00:13;100428.06;;;11.63;100.00
75740;BME280;64357;51.344;6.550;2023-11-19T07:02:39;100429.31;;;11.58;100.00
75740;BME280;64357;51.344;6.550;2023-11-19T07:05:05;100436.75;;;11.55;100.00
75740;BME280;64357;51.344;6.550;2023-11-19T07:07:31;100433.25;;;11.55;100.00
75740;BME280;64357;51.344;6.550;2023-11-19T07:09:58;100438.72;;;11.49;100.00
75740;BME280;64357;51.344;6.550;2023-11-19T07:12:25;100448.00;;;11.57;100.00
75740;BME280;64357;51.344;6.550;2023-11-19T07:14:53;100436.16;;;11.49;100.00
75740;BME280;64357;51.344;6.550;2023-11-19T07:17:20;100434.53;;;11.50;100.00
75740;BME280;64357;51.344;6.550;2023-11-19T07:19:51;100441.44;;;11.51;100.00
75740;BME280;64357;51.344;6.550;2023-11-19T07:22:19;100441.03;;;11.46;100.00
75740;BME280;64357;51.344;6.550;2023-11-19T07:24:45;100442.81;;;11.47;100.00
75740;BME280;64357;51.344;6.550;2023-11-19T07:27:11;100441.09;;;11.37;100.00
75740;BME280;64357;51.344;6.550;2023-11-19T07:29:40;100443.50;;;11.36;100.00
75740;BME280;64357;51.344;6.550;2023-11-19T07:32:09;100449.13;;;11.32;100.00
75740;BME280;64357;51.344;6.550;2023-11-19T07:34:34;100443.84;;;11.30;100.00
75740;BME280;64357;51.344;6.550;2023-11-19T07:36:59;100453.31;;;11.31;100.00
75740;BME280;64357;51.344;6.550;2023-11-19T07:39:28;100454.72;;;11.28;100.00
75740;BME280;64357;51.344;6.550;2023-11-19T07:41:53;100456.59;;;11.20;100.00
75740;BME280;64357;51.344;6.550;2023-11-19T07:44:21;100476.84;;;11.27;100.00
75740;BME280;64357;51.344;6.550;2023-11-19T07:46:47;100478.75;;;11.30;100.00
75740;BME280;64357;51.344;6.550;2023-11-19T07:49:14;100475.19;;;11.28;100.00
75740;BME280;64357;51.344;6.550;2023-11-19T07:51:40;100489.00;;;11.30;100.00
75740;BME280;64357;51.344;6.550;2023-11-19T07:54:06;100483.75;;;11.28;100.00
75740;BME280;64357;51.344;6.550;2023-11-19T07:56:33;100488.66;;;11.35;100.00
75740;BME280;64357;51.344;6.550;2023-11-19T07:59:04;100502.75;;;11.40;100.00
75740;BME280;64357;51.344;6.550;2023-11-19T08:01:29;100517.19;;;11.40;100.00
75740;BME280;64357;51.344;6.550;2023-11-19T08:03:57;100519.47;;;11.37;100.00
75740;BME280;64357;51.344;6.550;2023-11-19T08:06:27;100519.88;;;11.41;100.00
75740;BME280;64357;51.344;6.550;2023-11-19T08:08:55;100524.66;;;11.47;100.00
75740;BME280;64357;51.344;6.550;2023-11-19T08:11:21;100518.59;;;11.55;100.00
75740;BME280;64357;51.344;6.550;2023-11-19T08:13:48;100522.19;;;11.57;100.00
75740;BME280;64357;51.344;6.550;2023-11-19T08:16:17;100517.63;;;11.63;100.00
75740;BME280;64357;51.344;6.550;2023-11-19T08:18:45;100533.94;;;11.74;100.00
75740;BME280;64357;51.344;6.550;2023-11-19T08:21:11;100538.28;;;11.75;100.00
75740;BME280;64357;51.344;6.550;2023-11-19T08:23:37;100525.28;;;11.63;100.00
75740;BME280;64357;51.344;6.550;2023-11-19T08:26:05;100527.09;;;11.64;100.00
75740;BME280;64357;51.344;6.550;2023-11-19T08:28:31;100527.00;;;11.54;100.00
75740;BME280;64357;51.344;6.550;2023-11-19T08:31:01;100527.91;;;11.55;100.00
75740;BME280;64357;51.344;6.550;2023-11-19T08:33:29;100525.63;;;11.58;100.00
75740;BME280;64357;51.344;6.550;2023-11-19T08:35:54;100522.44;;;11.60;100.00
75740;BME280;64357;51.344;6.550;2023-11-19T08:38:20;100499.50;;;11.52;100.00
75740;BME280;64357;51.344;6.550;2023-11-19T08:40:45;100485.63;;;11.39;100.00
75740;BME280;64357;51.344;6.550;2023-11-19T08:43:14;100507.09;;;11.60;100.00
75740;BME280;64357;51.344;6.550;2023-11-19T08:45:42;100500.06;;;11.58;100.00
75740;BME280;64357;51.344;6.550;2023-11-19T08:48:11;100517.53;;;11.72;100.00
75740;BME280;64357;51.344;6.550;2023-11-19T08:50:36;100526.69;;;11.79;100.00
75740;BME280;64357;51.344;6.550;2023-11-19T08:53:01;100529.81;;;11.85;100.00
75740;BME280;64357;51.344;6.550;2023-11-19T08:55:27;100539.69;;;11.90;100.00
75740;BME280;64357;51.344;6.550;2023-11-19T08:57:52;100530.63;;;11.94;100.00
75740;BME280;64357;51.344;6.550;2023-11-19T09:00:18;100531.50;;;11.94;100.00
75740;BME280;64357;51.344;6.550;2023-11-19T09:02:46;100531.81;;;11.97;100.00
75740;BME280;64357;51.344;6.550;2023-11-19T09:05:11;100544.38;;;12.05;100.00
75740;BME280;64357;51.344;6.550;2023-11-19T09:07:37;100540.44;;;12.08;100.00
75740;BME280;64357;51.344;6.550;2023-11-19T09:10:05;100543.53;;;12.14;100.00
75740;BME280;64357;51.344;6.550;2023-11-19T09:12:31;100536.50;;;12.22;100.00
75740;BME280;64357;51.344;6.550;2023-11-19T09:14:58;100541.69;;;12.32;100.00
75740;BME280;64357;51.344;6.550;2023-11-19T09:17:24;100536.19;;;12.38;100.00
75740;BME280;64357;51.344;6.550;2023-11-19T09:19:52;100535.31;;;12.37;100.00
75740;BME280;64357;51.344;6.550;2023-11-19T09:22:22;100538.88;;;12.39;100.00
75740;BME280;64357;51.344;6.550;2023-11-19T09:24:50;100531.69;;;12.35;100.00
75740;BME280;64357;51.344;6.550;2023-11-19T09:27:20;100534.28;;;12.45;100.00
75740;BME280;64357;51.344;6.550;2023-11-19T09:29:46;100532.75;;;12.47;100.00
75740;BME280;64357;51.344;6.550;2023-11-19T09:32:17;100535.84;;;12.43;100.00
75740;BME280;64357;51.344;6.550;2023-11-19T09:34:42;100535.22;;;12.56;100.00
75740;BME280;64357;51.344;6.550;2023-11-19T09:37:10;100542.38;;;12.60;100.00
75740;BME280;64357;51.344;6.550;2023-11-19T09:39:35;100537.25;;;12.60;100.00
75740;BME280;64357;51.344;6.550;2023-11-19T09:42:00;100545.72;;;12.59;100.00
75740;BME280;64357;51.344;6.550;2023-11-19T09:44:26;100541.00;;;12.64;100.00
75740;BME280;64357;51.344;6.550;2023-11-19T09:46:55;100543.84;;;12.67;100.00
75740;BME280;64357;51.344;6.550;2023-11-19T09:49:21;100540.09;;;12.63;100.00
75740;BME280;64357;51.344;6.550;2023-11-19T09:51:51;100537.19;;;12.69;100.00
75740;BME280;64357;51.344;6.550;2023-11-19T09:54:18;100534.63;;;12.69;100.00
75740;BME280;64357;51.344;6.550;2023-11-19T09:56:44;100528.06;;;12.62;100.00
75740;BME280;64357;51.344;6.550;2023-11-19T09:59:10;100543.19;;;12.69;100.00
75740;BME280;64357;51.344;6.550;2023-11-19T10:01:37;100525.38;;;12.61;100.00
75740;BME280;64357;51.344;6.550;2023-11-19T10:04:03;100524.75;;;12.63;100.00
75740;BME280;64357;51.344;6.550;2023-11-19T10:06:29;100523.47;;;12.68;100.00
75740;BME280;64357;51.344;6.550;2023-11-19T10:08:55;100502.69;;;12.65;100.00
75740;BME280;64357;51.344;6.550;2023-11-19T10:11:20;100496.03;;;12.77;100.00
75740;BME280;64357;51.344;6.550;2023-11-19T10:13:46;100535.69;;;13.01;100.00
75740;BME280;64357;51.344;6.550;2023-11-19T10:16:13;100498.53;;;12.96;100.00
75740;BME280;64357;51.344;6.550;2023-11-19T10:18:45;100519.66;;;13.04;100.00
75740;BME280;64357;51.344;6.550;2023-11-19T10:21:12;100500.19;;;12.96;100.00
75740;BME280;64357;51.344;6.550;2023-11-19T10:23:52;100483.22;;;12.77;100.00
75740;BME280;64357;51.344;6.550;2023-11-19T10:26:27;100495.44;;;12.90;100.00
75740;BME280;64357;51.344;6.550;2023-11-19T10:28:57;100476.44;;;12.78;100.00
75740;BME280;64357;51.344;6.550;2023-11-19T10:31:24;100510.94;;;13.12;100.00
75740;BME280;64357;51.344;6.550;2023-11-19T10:33:53;100491.19;;;13.01;100.00
75740;BME280;64357;51.344;6.550;2023-11-19T10:36:29;100505.44;;;13.18;100.00
75740;BME280;64357;51.344;6.550;2023-11-19T10:39:11;100484.41;;;12.91;100.00
75740;BME280;64357;51.344;6.550;2023-11-19T10:41:36;100513.38;;;13.00;100.00
75740;BME280;64357;51.344;6.550;2023-11-19T10:44:26;100514.16;;;13.10;100.00
75740;BME280;64357;51.344;6.550;2023-11-19T10:46:51;100511.34;;;13.17;100.00
75740;BME280;64357;51.344;6.550;2023-11-19T10:49:19;100511.75;;;13.31;100.00
75740;BME280;64357;51.344;6.550;2023-11-19T10:51:48;100499.94;;;13.23;100.00
75740;BME280;64357;51.344;6.550;2023-11-19T10:54:21;100523.28;;;13.47;100.00
75740;BME280;64357;51.344;6.550;2023-11-19T10:56:58;100504.97;;;13.22;100.00
75740;BME280;64357;51.344;6.550;2023-11-19T10:59:26;100483.78;;;13.24;100.00
75740;BME280;64357;51.344;6.550;2023-11-19T11:01:57;100479.81;;;13.28;100.00
75740;BME280;64357;51.344;6.550;2023-11-19T11:04:33;100515.97;;;13.51;100.00
75740;BME280;64357;51.344;6.550;2023-11-19T11:07:04;100481.44;;;13.48;100.00
75740;BME280;64357;51.344;6.550;2023-11-19T11:09:31;100498.13;;;13.53;100.00
75740;BME280;64357;51.344;6.550;2023-11-19T11:12:00;100504.84;;;13.83;100.00
75740;BME280;64357;51.344;6.550;2023-11-19T11:14:30;100484.34;;;13.73;100.00
75740;BME280;64357;51.344;6.550;2023-11-19T11:16:57;100509.00;;;14.13;100.00
75740;BME280;64357;51.344;6.550;2023-11-19T11:19:26;100486.91;;;14.37;100.00
75740;BME280;64357;51.344;6.550;2023-11-19T11:21:55;100517.09;;;14.72;100.00
75740;BME280;64357;51.344;6.550;2023-11-19T11:27:30;100472.03;;;14.77;100.00
75740;BME280;64357;51.344;6.550;2023-11-19T11:30:05;100491.75;;;15.22;100.00
75740;BME280;64357;51.344;6.550;2023-11-19T11:33:02;100493.53;;;15.34;100.00
75740;BME280;64357;51.344;6.550;2023-11-19T11:38:22;100493.59;;;15.12;100.00
75740;BME280;64357;51.344;6.550;2023-11-19T11:41:29;100498.97;;;15.04;100.00
75740;BME280;64357;51.344;6.550;2023-11-19T11:43:58;100474.41;;;14.85;100.00
75740;BME280;64357;51.344;6.550;2023-11-19T11:49:08;100469.69;;;14.36;100.00
75740;BME280;64357;51.344;6.550;2023-11-19T11:59:52;100463.00;;;14.38;100.00
75740;BME280;64357;51.344;6.550;2023-11-19T12:02:20;100462.69;;;14.23;100.00
75740;BME280;64357;51.344;6.550;2023-11-19T12:04:50;100462.31;;;14.19;100.00
75740;BME280;64357;51.344;6.550;2023-11-19T12:07:21;100456.03;;;14.69;100.00
75740;BME280;64357;51.344;6.550;2023-11-19T12:09:50;100453.03;;;14.53;100.00
75740;BME280;64357;51.344;6.550;2023-11-19T12:12:21;100446.38;;;15.00;100.00
75740;BME280;64357;51.344;6.550;2023-11-19T12:15:03;100456.41;;;14.85;100.00
75740;BME280;64357;51.344;6.550;2023-11-19T12:20:00;100451.44;;;14.11;100.00
75740;BME280;64357;51.344;6.550;2023-11-19T12:22:28;100440.31;;;14.00;100.00
75740;BME280;64357;51.344;6.550;2023-11-19T12:24:54;100446.53;;;13.92;100.00
75740;BME280;64357;51.344;6.550;2023-11-19T12:27:20;100444.91;;;13.82;100.00
75740;BME280;64357;51.344;6.550;2023-11-19T12:29:50;100456.91;;;13.62;100.00
75740;BME280;64357;51.344;6.550;2023-11-19T12:32:16;100460.28;;;13.40;100.00
75740;BME280;64357;51.344;6.550;2023-11-19T12:34:45;100454.53;;;13.32;100.00
75740;BME280;64357;51.344;6.550;2023-11-19T12:37:13;100451.72;;;13.09;100.00
75740;BME280;64357;51.344;6.550;2023-11-19T12:39:39;100455.69;;;12.95;100.00
75740;BME280;64357;51.344;6.550;2023-11-19T12:42:05;100460.69;;;12.73;100.00
75740;BME280;64357;51.344;6.550;2023-11-19T12:49:41;100425.50;;;11.82;100.00
75740;BME280;64357;51.344;6.550;2023-11-19T12:52:13;100436.97;;;12.06;100.00
75740;BME280;64357;51.344;6.550;2023-11-19T12:54:38;100468.66;;;12.27;100.00
75740;BME280;64357;51.344;6.550;2023-11-19T12:57:04;100456.75;;;12.27;100.00
75740;BME280;64357;51.344;6.550;2023-11-19T12:59:31;100459.06;;;12.35;100.00
75740;BME280;64357;51.344;6.550;2023-11-19T13:01:57;100467.19;;;12.49;100.00
75740;BME280;64357;51.344;6.550;2023-11-19T13:04:23;100456.44;;;12.64;100.00
75740;BME280;64357;51.344;6.550;2023-11-19T13:06:52;100460.06;;;12.86;100.00